createdAt,value
2022-12-11T00:02:05.719Z,25.52
2022-12-11T00:04:32.558Z,16.25
2022-12-11T00:06:59.375Z,16.15
2022-12-11T00:09:26.132Z,17.05
2022-12-11T00:11:52.914Z,22.55
2022-12-11T00:14:19.737Z,32.33
2022-12-11T00:16:48.470Z,21.17
2022-12-11T00:19:15.855Z,32.75
2022-12-11T00:21:42.657Z,31.08
2022-12-11T00:24:09.421Z,21.38
2022-12-11T00:26:36.250Z,20.15
2022-12-11T00:29:03.704Z,13.63
2022-12-11T00:31:30.621Z,24.48
2022-12-11T00:33:57.720Z,21.35
2022-12-11T00:36:26.379Z,34.45
2022-12-11T00:38:54.093Z,16.20
2022-12-11T00:41:21.639Z,27.35
2022-12-11T00:46:15.288Z,23.63
2022-12-11T00:48:42.393Z,16.20
2022-12-11T00:51:09.978Z,28.70
2022-12-11T00:58:36.415Z,24.05
2022-12-11T01:01:12.562Z,29.58
2022-12-11T01:03:39.713Z,27.67
2022-12-11T01:06:06.983Z,30.33
2022-12-11T01:08:38.288Z,31.30
2022-12-11T01:11:08.739Z,21.95
2022-12-11T01:13:36.041Z,32.97
2022-12-11T01:16:11.113Z,23.35
2022-12-11T01:18:38.707Z,24.20
2022-12-11T01:23:33.100Z,26.42
2022-12-11T01:26:06.316Z,21.73
2022-12-11T01:28:33.172Z,22.27
2022-12-11T01:31:00.128Z,19.95
2022-12-11T01:33:27.383Z,16.95
2022-12-11T01:35:54.312Z,32.17
2022-12-11T01:38:21.073Z,24.40
2022-12-11T01:40:49.451Z,26.15
2022-12-11T01:43:16.209Z,33.42
2022-12-11T01:45:45.898Z,31.73
2022-12-11T01:48:16.124Z,40.47
2022-12-11T01:51:04.707Z,23.75
2022-12-11T01:53:45.782Z,26.98
2022-12-11T01:56:12.949Z,30.45
2022-12-11T01:58:48.847Z,25.20
2022-12-11T02:01:24.776Z,27.10
2022-12-11T02:03:52.674Z,20.85
2022-12-11T02:06:37.633Z,22.95
2022-12-11T02:09:08.839Z,25.77
2022-12-11T02:11:42.890Z,23.48
2022-12-11T02:14:26.736Z,24.30
2022-12-11T02:17:00.096Z,24.05
2022-12-11T02:19:54.225Z,29.08
2022-12-11T02:22:58.555Z,31.67
2022-12-11T02:25:38.571Z,24.80
2022-12-11T02:28:19.953Z,24.20
2022-12-11T02:30:51.607Z,27.67
2022-12-11T02:33:25.973Z,32.92
2022-12-11T02:35:53.895Z,24.77
2022-12-11T02:38:30.274Z,29.50
2022-12-11T02:40:59.535Z,21.57
2022-12-11T02:43:28.887Z,27.90
2022-12-11T02:45:56.718Z,30.52
2022-12-11T02:48:24.550Z,34.28
2022-12-11T02:50:56.123Z,26.38
2022-12-11T02:53:26.014Z,28.27
2022-12-11T02:55:58.522Z,35.80
2022-12-11T02:58:30.703Z,39.55
2022-12-11T03:00:57.599Z,30.15
2022-12-11T03:03:24.810Z,20.20
2022-12-11T03:05:51.554Z,30.70
2022-12-11T03:08:18.602Z,28.02
2022-12-11T03:10:46.306Z,40.05
2022-12-11T03:13:19.955Z,29.27
2022-12-11T03:16:37.331Z,32.38
2022-12-11T03:19:31.682Z,33.25
2022-12-11T03:22:18.955Z,38.17
2022-12-11T03:24:57.426Z,32.47
2022-12-11T03:27:32.834Z,26.85
2022-12-11T03:30:14.118Z,38.05
2022-12-11T03:32:50.275Z,25.70
2022-12-11T03:35:28.947Z,40.60
2022-12-11T03:37:57.878Z,40.47
2022-12-11T03:40:27.752Z,34.55
2022-12-11T03:42:56.965Z,34.28
2022-12-11T03:45:25.940Z,36.30
2022-12-11T03:47:55.162Z,40.83
2022-12-11T03:50:24.554Z,38.35
2022-12-11T03:52:52.239Z,38.67
2022-12-11T03:55:21.084Z,42.15
2022-12-11T03:57:48.452Z,39.22
2022-12-11T04:00:19.014Z,36.97
2022-12-11T04:03:12.647Z,44.67
2022-12-11T04:05:46.862Z,43.28
2022-12-11T04:08:14.479Z,41.40
2022-12-11T04:10:42.067Z,42.67
2022-12-11T04:15:37.262Z,34.92
2022-12-11T04:18:23.671Z,48.58
2022-12-11T04:21:12.611Z,26.23
2022-12-11T04:23:57.960Z,47.85
2022-12-11T04:26:25.006Z,45.83
2022-12-11T04:28:51.825Z,44.90
2022-12-11T04:31:21.272Z,33.33
2022-12-11T04:33:48.788Z,48.88
2022-12-11T04:36:16.194Z,37.10
2022-12-11T04:38:42.978Z,52.72
2022-12-11T04:41:12.560Z,32.03
2022-12-11T04:43:39.799Z,43.75
2022-12-11T04:46:10.965Z,39.20
2022-12-11T04:48:39.063Z,42.67
2022-12-11T04:51:06.815Z,46.40
2022-12-11T04:53:34.411Z,32.08
2022-12-11T04:56:01.546Z,36.10
2022-12-11T04:58:28.374Z,33.60
2022-12-11T05:00:55.111Z,26.10
2022-12-11T05:03:21.949Z,33.13
2022-12-11T05:05:50.569Z,30.58
2022-12-11T05:08:18.848Z,27.60
2022-12-11T05:10:54.504Z,41.58
2022-12-11T05:13:21.266Z,46.58
2022-12-11T05:15:48.163Z,29.13
2022-12-11T05:18:14.903Z,24.17
2022-12-11T05:20:41.690Z,28.58
2022-12-11T05:23:08.457Z,28.02
2022-12-11T05:25:35.219Z,18.00
2022-12-11T05:28:02.009Z,24.77
2022-12-11T05:30:28.779Z,28.98
2022-12-11T05:32:55.498Z,20.13
2022-12-11T05:35:22.232Z,19.90
2022-12-11T05:37:48.965Z,23.23
2022-12-11T05:40:15.825Z,21.42
2022-12-11T05:42:42.610Z,27.98
2022-12-11T05:45:10.201Z,24.25
2022-12-11T05:47:37.331Z,22.75
2022-12-11T05:50:04.263Z,21.45
2022-12-11T05:52:31.770Z,22.25
2022-12-11T05:57:25.282Z,22.45
2022-12-11T05:59:52.028Z,19.25
2022-12-11T06:02:18.884Z,18.05
2022-12-11T06:04:45.707Z,26.05
2022-12-11T06:07:13.379Z,14.63
2022-12-11T06:09:40.164Z,31.42
2022-12-11T06:12:06.976Z,26.98
2022-12-11T06:14:33.798Z,23.70
2022-12-11T06:17:01.461Z,27.00
2022-12-11T06:19:31.909Z,35.47
2022-12-11T06:22:01.846Z,27.83
2022-12-11T06:24:28.605Z,21.52
2022-12-11T06:26:55.352Z,28.55
2022-12-11T06:29:22.100Z,16.33
2022-12-11T06:31:48.902Z,24.85
2022-12-11T06:34:15.784Z,28.63
2022-12-11T06:36:42.553Z,20.75
2022-12-11T06:39:09.607Z,23.00
2022-12-11T06:41:36.414Z,33.28
2022-12-11T06:44:03.663Z,20.98
2022-12-11T06:46:30.454Z,14.82
2022-12-11T06:48:57.216Z,18.73
2022-12-11T06:51:24.043Z,27.42
2022-12-11T06:53:55.890Z,21.20
2022-12-11T06:56:23.984Z,23.63
2022-12-11T06:58:51.833Z,18.67
2022-12-11T07:01:25.487Z,21.15
2022-12-11T07:03:57.300Z,23.10
2022-12-11T07:06:25.818Z,19.45
2022-12-11T07:08:53.014Z,20.38
2022-12-11T07:11:21.015Z,22.15
2022-12-11T07:13:48.126Z,16.77
2022-12-11T07:16:17.224Z,12.07
2022-12-11T07:18:48.298Z,18.48
2022-12-11T07:21:15.225Z,18.70
2022-12-11T07:23:42.488Z,11.57
2022-12-11T07:26:12.533Z,12.52
2022-12-11T07:28:39.952Z,13.07
2022-12-11T07:31:14.754Z,16.02
2022-12-11T07:33:42.647Z,12.95
2022-12-11T07:36:11.639Z,19.60
2022-12-11T07:38:38.862Z,10.38
2022-12-11T07:41:11.271Z,11.23
2022-12-11T07:43:38.107Z,13.07
2022-12-11T07:46:07.921Z,14.23
2022-12-11T07:48:39.021Z,11.02
2022-12-11T07:51:26.404Z,10.75
2022-12-11T07:54:05.107Z,9.52
2022-12-11T07:56:32.240Z,12.25
2022-12-11T07:59:00.908Z,12.55
2022-12-11T08:01:29.425Z,16.25
2022-12-11T08:03:56.706Z,10.00
2022-12-11T08:06:29.081Z,10.93
2022-12-11T08:08:57.431Z,10.35
2022-12-11T08:11:24.826Z,12.80
2022-12-11T08:13:51.720Z,16.20
2022-12-11T08:16:19.614Z,11.07
2022-12-11T08:18:47.948Z,16.30
2022-12-11T08:21:17.978Z,16.52
2022-12-11T08:23:44.866Z,13.13
2022-12-11T08:26:15.232Z,8.77
2022-12-11T08:28:42.011Z,10.35
2022-12-11T08:31:10.394Z,13.35
2022-12-11T08:33:38.284Z,11.48
2022-12-11T08:36:11.203Z,14.82
2022-12-11T08:38:38.087Z,11.80
2022-12-11T08:41:16.637Z,12.38
2022-12-11T08:43:44.296Z,13.57
2022-12-11T08:46:12.683Z,12.38
2022-12-11T08:48:41.417Z,13.10
2022-12-11T08:51:12.028Z,11.02
2022-12-11T08:53:39.533Z,11.82
2022-12-11T08:58:35.554Z,12.18
2022-12-11T09:01:11.418Z,14.02
2022-12-11T09:03:39.863Z,12.93
2022-12-11T09:06:08.944Z,10.77
2022-12-11T09:08:36.172Z,11.07
2022-12-11T09:11:14.362Z,15.90
2022-12-11T09:13:41.811Z,10.15
2022-12-11T09:16:11.264Z,11.02
2022-12-11T09:18:39.310Z,10.68
2022-12-11T09:21:08.893Z,9.90
2022-12-11T09:23:36.124Z,10.02
2022-12-11T09:26:07.645Z,11.05
2022-12-11T09:28:34.904Z,9.13
2022-12-11T09:31:01.858Z,8.40
2022-12-11T09:33:28.692Z,7.45
2022-12-11T09:36:03.178Z,10.57
2022-12-11T09:38:30.516Z,8.10
2022-12-11T09:40:57.408Z,9.02
2022-12-11T09:43:29.924Z,6.45
2022-12-11T09:45:57.208Z,6.97
2022-12-11T09:48:26.243Z,7.80
2022-12-11T09:50:54.980Z,7.57
2022-12-11T09:53:34.502Z,9.55
2022-12-11T09:56:11.598Z,6.95
2022-12-11T09:59:09.287Z,9.05
2022-12-11T10:02:12.076Z,9.13
2022-12-11T10:04:56.714Z,7.30
2022-12-11T10:07:49.353Z,6.85
2022-12-11T10:10:32.152Z,6.32
2022-12-11T10:13:09.934Z,6.35
2022-12-11T10:15:41.182Z,7.05
2022-12-11T10:18:15.770Z,6.60
2022-12-11T10:20:44.285Z,7.55
2022-12-11T10:23:20.929Z,6.90
2022-12-11T10:26:03.878Z,7.07
2022-12-11T10:28:30.650Z,10.18
2022-12-11T10:31:15.818Z,8.85
2022-12-11T10:34:02.469Z,10.10
2022-12-11T10:36:36.838Z,9.82
2022-12-11T10:39:10.852Z,8.52
2022-12-11T10:41:42.367Z,7.75
2022-12-11T10:44:29.269Z,7.35
2022-12-11T10:47:12.295Z,6.38
2022-12-11T10:49:43.181Z,6.78
2022-12-11T10:52:20.976Z,6.47
2022-12-11T10:54:59.318Z,5.82
2022-12-11T10:57:37.656Z,7.38
2022-12-11T11:00:07.054Z,6.93
2022-12-11T11:02:41.682Z,8.35
2022-12-11T11:05:15.019Z,6.78
2022-12-11T11:07:41.891Z,9.75
2022-12-11T11:10:11.491Z,6.88
2022-12-11T11:12:47.521Z,8.50
2022-12-11T11:15:26.927Z,7.20
2022-12-11T11:17:56.311Z,5.35
2022-12-11T11:20:26.558Z,7.13
2022-12-11T11:22:56.669Z,7.63
2022-12-11T11:25:26.579Z,6.38
2022-12-11T11:27:58.355Z,9.60
2022-12-11T11:30:28.509Z,8.35
2022-12-11T11:33:02.072Z,7.00
2022-12-11T11:35:30.558Z,8.27
2022-12-11T11:38:09.128Z,8.45
2022-12-11T11:40:51.406Z,5.75
2022-12-11T11:43:30.087Z,7.15
2022-12-11T11:46:03.163Z,6.65
2022-12-11T11:48:47.982Z,5.88
2022-12-11T11:51:32.011Z,6.47
2022-12-11T11:54:01.895Z,6.18
2022-12-11T11:56:36.170Z,6.47
2022-12-11T11:59:11.643Z,5.95
2022-12-11T12:01:42.093Z,7.25
2022-12-11T12:04:11.075Z,7.20
2022-12-11T12:06:48.948Z,6.75
2022-12-11T12:09:43.621Z,8.73
2022-12-11T12:12:34.252Z,6.60
2022-12-11T12:15:01.822Z,8.60
2022-12-11T12:17:55.083Z,6.53
2022-12-11T12:21:04.807Z,8.07
2022-12-11T12:23:53.803Z,7.60
2022-12-11T12:26:32.985Z,7.65
2022-12-11T12:29:21.476Z,8.57
2022-12-11T12:32:09.645Z,9.27
2022-12-11T12:34:59.303Z,8.02
2022-12-11T12:37:45.759Z,7.88
2022-12-11T12:40:30.709Z,5.77
2022-12-11T12:43:30.768Z,9.45
2022-12-11T12:45:57.555Z,12.00
2022-12-11T12:48:25.986Z,9.02
2022-12-11T12:50:53.226Z,9.18
2022-12-11T12:53:24.129Z,15.82
2022-12-11T12:55:52.503Z,13.93
2022-12-11T12:58:31.069Z,10.48
2022-12-11T13:01:10.687Z,8.15
2022-12-11T13:03:57.353Z,9.65
2022-12-11T13:06:44.296Z,9.15
2022-12-11T13:09:17.450Z,9.18
2022-12-11T13:11:47.226Z,10.68
2022-12-11T13:14:15.463Z,9.30
2022-12-11T13:16:50.976Z,10.40
2022-12-11T13:19:25.483Z,7.82
2022-12-11T13:22:02.458Z,12.73
2022-12-11T13:24:32.449Z,8.25
2022-12-11T13:27:24.631Z,8.60
2022-12-11T13:29:52.169Z,6.53
2022-12-11T13:34:57.623Z,7.72
2022-12-11T13:37:34.859Z,14.65
2022-12-11T13:43:22.146Z,8.63
2022-12-11T13:46:00.520Z,11.52
2022-12-11T13:48:33.690Z,8.18
2022-12-11T13:51:02.574Z,8.75
2022-12-11T13:53:29.534Z,9.68
2022-12-11T13:56:00.549Z,11.02
2022-12-11T13:58:28.825Z,8.63
2022-12-11T14:01:11.113Z,12.73
2022-12-11T14:03:45.155Z,8.05
2022-12-11T14:06:18.344Z,9.30
2022-12-11T14:08:50.035Z,9.30
2022-12-11T14:11:23.458Z,13.38
2022-12-11T14:13:51.350Z,8.95
2022-12-11T14:16:22.742Z,11.02
2022-12-11T14:18:54.092Z,8.88
2022-12-11T14:21:25.690Z,8.05
2022-12-11T14:23:55.341Z,8.30
2022-12-11T14:26:29.420Z,9.90
2022-12-11T14:28:56.183Z,10.73
2022-12-11T14:31:37.995Z,10.30
2022-12-11T14:34:18.711Z,8.60
2022-12-11T14:36:47.675Z,8.52
2022-12-11T14:39:20.412Z,9.18
2022-12-11T14:42:17.514Z,11.32
2022-12-11T14:44:55.218Z,10.32
2022-12-11T14:47:28.253Z,7.85
2022-12-11T14:50:01.462Z,11.65
2022-12-11T14:52:39.912Z,8.32
2022-12-11T14:55:17.172Z,8.68
2022-12-11T14:57:47.686Z,18.27
2022-12-11T15:00:27.674Z,8.70
2022-12-11T15:03:00.151Z,9.52
2022-12-11T15:05:27.850Z,10.43
2022-12-11T15:10:36.360Z,7.63
2022-12-11T15:13:05.815Z,9.38
2022-12-11T15:15:43.712Z,8.88
2022-12-11T15:18:23.975Z,10.63
2022-12-11T15:20:53.611Z,16.92
2022-12-11T15:23:20.777Z,8.60
2022-12-11T15:25:56.875Z,9.18
2022-12-11T15:28:36.390Z,9.18
2022-12-11T15:31:26.733Z,8.30
2022-12-11T15:33:53.963Z,11.52
2022-12-11T15:36:31.755Z,13.73
2022-12-11T15:38:58.570Z,15.70
2022-12-11T15:41:25.938Z,9.80
2022-12-11T15:43:59.200Z,11.75
2022-12-11T15:46:26.567Z,12.57
2022-12-11T15:48:53.999Z,9.52
2022-12-11T15:51:20.746Z,11.85
2022-12-11T15:53:47.522Z,9.57
2022-12-11T15:56:15.895Z,7.47
2022-12-11T15:58:45.450Z,9.10
2022-12-11T16:01:12.331Z,14.88
2022-12-11T16:03:39.155Z,7.82
2022-12-11T16:06:06.136Z,6.82
2022-12-11T16:08:33.059Z,15.32
2022-12-11T16:10:59.964Z,11.85
2022-12-11T16:13:27.276Z,18.00
2022-12-11T16:15:54.357Z,11.73
2022-12-11T16:18:23.490Z,12.43
2022-12-11T16:20:51.275Z,10.27
2022-12-11T16:23:18.414Z,10.15
2022-12-11T16:25:46.341Z,13.15
2022-12-11T16:28:15.230Z,14.65
2022-12-11T16:30:43.440Z,12.48
2022-12-11T16:33:13.302Z,11.88
2022-12-11T16:35:41.878Z,16.45
2022-12-11T16:38:10.017Z,12.65
2022-12-11T16:40:37.481Z,11.77
2022-12-11T16:43:05.019Z,13.88
2022-12-11T16:48:01.905Z,9.25
2022-12-11T16:50:28.670Z,13.07
2022-12-11T16:52:56.422Z,8.68
2022-12-11T16:55:23.157Z,10.55
2022-12-11T16:57:49.887Z,10.02
2022-12-11T17:00:17.023Z,7.50
2022-12-11T17:02:43.888Z,9.02
2022-12-11T17:05:11.029Z,16.02
2022-12-11T17:07:38.135Z,13.25
2022-12-11T17:10:05.519Z,10.05
2022-12-11T17:12:32.337Z,11.75
2022-12-11T17:14:59.125Z,7.70
2022-12-11T17:17:25.971Z,12.73
2022-12-11T17:19:52.805Z,8.90
2022-12-11T17:22:19.829Z,11.07
2022-12-11T17:24:46.876Z,7.63
2022-12-11T17:27:13.881Z,9.85
2022-12-11T17:29:40.634Z,9.38
2022-12-11T17:32:07.367Z,13.48
2022-12-11T17:34:38.109Z,8.43
2022-12-11T17:37:05.589Z,12.98
2022-12-11T17:39:32.776Z,13.63
2022-12-11T17:41:59.735Z,14.57
2022-12-11T17:44:26.766Z,10.93
2022-12-11T17:46:53.768Z,11.75
2022-12-11T17:49:20.547Z,13.95
2022-12-11T17:51:47.929Z,11.30
2022-12-11T17:54:14.898Z,12.93
2022-12-11T17:56:41.774Z,8.65
2022-12-11T17:59:08.497Z,11.38
2022-12-11T18:01:35.626Z,10.57
2022-12-11T18:04:02.726Z,14.15
2022-12-11T18:06:30.212Z,17.08
2022-12-11T18:08:57.967Z,12.07
2022-12-11T18:11:25.346Z,17.95
2022-12-11T18:13:53.364Z,16.83
2022-12-11T18:16:32.827Z,12.65
2022-12-11T18:19:00.033Z,12.50
2022-12-11T18:21:32.751Z,16.08
2022-12-11T18:24:00.632Z,15.93
2022-12-11T18:26:27.678Z,13.43
2022-12-11T18:28:54.738Z,21.27
2022-12-11T18:31:22.369Z,16.05
2022-12-11T18:33:49.768Z,12.02
2022-12-11T18:36:18.697Z,11.07
2022-12-11T18:38:46.935Z,16.25
2022-12-11T18:41:15.428Z,10.95
2022-12-11T18:43:42.539Z,12.65
2022-12-11T18:46:12.510Z,13.77
2022-12-11T18:48:39.727Z,16.67
2022-12-11T18:51:09.109Z,12.57
2022-12-11T18:53:39.004Z,15.95
2022-12-11T18:56:13.153Z,17.00
2022-12-11T18:58:40.258Z,13.27
2022-12-11T19:01:28.848Z,13.98
2022-12-11T19:04:04.452Z,14.70
2022-12-11T19:06:35.554Z,17.08
2022-12-11T19:09:05.628Z,12.55
2022-12-11T19:11:34.343Z,12.48
2022-12-11T19:14:01.501Z,12.63
2022-12-11T19:16:34.469Z,13.52
2022-12-11T19:19:04.229Z,14.68
2022-12-11T19:21:31.268Z,16.33
2022-12-11T19:23:59.236Z,16.23
2022-12-11T19:26:26.326Z,13.77
2022-12-11T19:28:53.732Z,12.70
2022-12-11T19:31:22.808Z,13.98
2022-12-11T19:33:50.107Z,12.52
2022-12-11T19:36:19.754Z,13.30
2022-12-11T19:38:46.963Z,15.95
2022-12-11T19:41:22.948Z,15.32
2022-12-11T19:43:50.788Z,16.55
2022-12-11T19:46:18.791Z,23.38
2022-12-11T19:48:47.928Z,12.60
2022-12-11T19:51:17.323Z,16.98
2022-12-11T19:53:45.508Z,14.55
2022-12-11T19:56:14.112Z,15.52
2022-12-11T19:58:41.559Z,11.68
2022-12-11T20:01:09.091Z,15.02
2022-12-11T20:03:36.428Z,15.23
2022-12-11T20:06:06.181Z,11.85
2022-12-11T20:08:44.871Z,11.32
2022-12-11T20:11:17.951Z,10.35
2022-12-11T20:13:46.300Z,13.20
2022-12-11T20:16:14.208Z,18.10
2022-12-11T20:18:41.606Z,13.02
2022-12-11T20:21:12.337Z,14.75
2022-12-11T20:23:39.308Z,12.02
2022-12-11T20:26:14.777Z,8.68
2022-12-11T20:28:44.807Z,8.27
2022-12-11T20:31:19.744Z,13.70
2022-12-11T20:33:48.644Z,10.73
2022-12-11T20:36:17.199Z,14.27
2022-12-11T20:38:44.436Z,14.77
2022-12-11T20:41:17.691Z,15.20
2022-12-11T20:43:45.019Z,20.67
2022-12-11T20:46:14.827Z,21.63
2022-12-11T20:48:43.172Z,22.85
2022-12-11T20:51:12.734Z,12.68
2022-12-11T20:53:40.126Z,16.75
2022-12-11T20:56:19.150Z,13.52
2022-12-11T20:58:46.313Z,14.20
2022-12-11T21:01:15.297Z,14.45
2022-12-11T21:03:42.576Z,12.00
2022-12-11T21:06:21.232Z,18.50
2022-12-11T21:08:48.365Z,17.05
2022-12-11T21:11:15.177Z,17.02
2022-12-11T21:13:42.029Z,16.45
2022-12-11T21:16:10.115Z,13.52
2022-12-11T21:18:37.229Z,20.10
2022-12-11T21:21:04.361Z,22.23
2022-12-11T21:23:31.530Z,21.20
2022-12-11T21:25:58.315Z,16.33
2022-12-11T21:28:27.286Z,15.27
2022-12-11T21:31:00.225Z,15.93
2022-12-11T21:33:27.779Z,16.77
2022-12-11T21:35:56.541Z,15.13
2022-12-11T21:38:23.667Z,18.80
2022-12-11T21:40:52.110Z,17.08
2022-12-11T21:43:19.411Z,17.95
2022-12-11T21:46:02.420Z,20.33
2022-12-11T21:48:29.437Z,15.35
2022-12-11T21:51:03.813Z,13.50
2022-12-11T21:53:30.599Z,21.15
2022-12-11T21:55:57.632Z,16.40
2022-12-11T21:58:24.389Z,13.00
2022-12-11T22:00:51.246Z,12.88
2022-12-11T22:03:18.229Z,11.57
2022-12-11T22:05:45.004Z,16.60
2022-12-11T22:08:11.826Z,19.63
2022-12-11T22:10:38.694Z,18.10
2022-12-11T22:13:05.455Z,15.82
2022-12-11T22:15:32.289Z,21.40
2022-12-11T22:17:59.041Z,16.98
2022-12-11T22:20:25.857Z,12.88
2022-12-11T22:22:52.630Z,13.52
2022-12-11T22:25:19.497Z,11.50
2022-12-11T22:27:46.249Z,19.25
2022-12-11T22:30:13.464Z,17.15
2022-12-11T22:32:40.462Z,23.63
2022-12-11T22:35:07.631Z,13.43
2022-12-11T22:37:34.389Z,14.80
2022-12-11T22:40:01.189Z,13.95
2022-12-11T22:42:27.964Z,15.55
2022-12-11T22:44:54.739Z,25.13
2022-12-11T22:47:21.491Z,16.52
2022-12-11T22:49:48.259Z,14.77
2022-12-11T22:52:15.157Z,14.75
2022-12-11T22:54:42.911Z,26.17
2022-12-11T22:57:09.922Z,17.00
2022-12-11T22:59:36.802Z,16.08
2022-12-11T23:02:03.604Z,14.30
2022-12-11T23:04:30.620Z,12.50
2022-12-11T23:06:57.915Z,15.73
2022-12-11T23:09:25.121Z,17.73
2022-12-11T23:11:52.632Z,17.38
2022-12-11T23:14:19.488Z,17.50
2022-12-11T23:16:46.440Z,10.02
2022-12-11T23:19:13.611Z,20.88
2022-12-11T23:21:40.951Z,15.27
2022-12-11T23:24:08.947Z,16.88
2022-12-11T23:26:36.340Z,18.98
2022-12-11T23:29:04.733Z,19.52
2022-12-11T23:31:32.184Z,15.43
2022-12-11T23:36:26.399Z,17.25
2022-12-11T23:38:54.948Z,15.02
2022-12-11T23:41:22.806Z,15.30
2022-12-11T23:46:19.097Z,16.98
2022-12-11T23:48:46.347Z,15.90
2022-12-11T23:51:16.255Z,23.10
2022-12-11T23:53:43.643Z,17.73
2022-12-11T23:56:19.810Z,14.82
2022-12-11T23:58:47.206Z,17.67
